Flight Track Log - Related Links

Times and Time Zones

All times are in EST time to prevent confusion due to time zone crossing. See the FTH85 flight status page for this flight to view local times or setup timezone preferences in your user account.

Time Position Orientation Groundspeed Altitude Reporting Facility
EST Latitude Longitude Course Direction KTS MPH feet Rate Location/Type
Wed 12:12:37 PM 39.2672 -106.9339 316° Northwest 196 226 13,500  Level Denver Center
Wed 12:13:39 PM 39.3136 -106.9922 316° Northwest 246 283 16,100 2,468 Climbing Denver Center
Wed 12:14:41 PM 39.3856 -106.9419 28° Northeast 307 353 18,600 1,403 Climbing Denver Center
Wed 12:15:43 PM 39.4400 -106.8156 61° Northeast 362 417 19,000 194 Climbing Denver Center
Wed 12:16:45 PM 39.4725 -106.6933 71° East 372 428 19,000  Level Denver Center
Wed 12:17:47 PM 39.5092 -106.5497 72° East 377 434 19,000  Level Denver Center
Wed 12:18:49 PM 39.5453 -106.4225 70° East 386 444 19,000  Level Denver Center
Wed 12:19:52 PM 39.5800 -106.2956 70° East 375 432 19,000 -336 Level Denver Center
Wed 12:20:54 PM 39.6194 -106.1525 70° East 364 419 18,300 -774 Descending Denver Center
Wed 12:21:56 PM 39.6547 -106.0275 70° East 368 423 17,400 -629 Descending Denver Center
Wed 12:22:58 PM 39.6864 -105.9092 71° East 353 406 17,000 -194 Descending Denver Center
Wed 12:24:00 PM 39.7206 -105.7808 71° East 359 413 17,000  Level Denver Center
Wed 12:25:02 PM 39.7556 -105.6497 71° East 359 413 17,000 -581 Level Denver Center
Wed 12:26:04 PM 39.7889 -105.5300 70° East 351 404 15,800 -1,355 Descending Denver Center
Wed 12:27:06 PM 39.8172 -105.4236 71° East 315 362 14,200 -1,645 Descending Denver Center
Wed 12:28:08 PM 39.8394 -105.3136 75° East 291 335 12,400 -1,887 Descending Denver Center
Wed 12:29:10 PM 39.8625 -105.2228 72° East 268 308 10,300 -2,081 Descending Denver Center
Wed 12:30:12 PM 39.8861 -105.1467 68° East 204 235 8,100 -1,597 Descending Denver Center
Wed 12:31:14 PM 39.8636 -105.1006 122° Southeast 150 173 7,000 -1,113 Descending Denver Center
Wed 12:32:16 PM 39.8958 -105.0878 17° North 121 139 5,800 -1,161 Descending Denver Center
Wed 12:34:00 PM 39.9088 -105.1172 300° West  Level Estimated

Login

Don't have an account? Register now (free) for customized features, flight alerts, and more!